Time;durP1;ratioP1;P1;durP2;ratioP2;P2;SDS_P1;SDS_P2;PMS_P1;PMS_P2;Temp;Humidity;BMP_temperature;BMP_pressure;BME280_temperature;BME280_humidity;BME280_pressure;Samples;Min_cycle;Max_cycle;Signal;HPM_P1;HPM_P2
2022/01/14 00:01:38;;;;;;;32.70;13.13;;;1.80;99.90;;;;;;5093588;28;20276;-74
2022/01/14 00:04:04;;;;;;;26.07;12.80;;;1.70;99.90;;;;;;5093215;28;20222;-75
2022/01/14 00:06:30;;;;;;;28.83;12.10;;;1.70;99.90;;;;;;5092893;28;20208;-74
2022/01/14 00:09:04;;;;;;;32.37;12.47;;;1.70;99.90;;;;;;5093317;28;20180;-75
2022/01/14 00:11:31;;;;;;;27.03;13.13;;;1.50;99.90;;;;;;5093164;28;20176;-74
2022/01/14 00:16:29;;;;;;;37.33;12.97;;;1.50;99.90;;;;;;5093021;28;20164;-76
2022/01/14 00:18:54;;;;;;;31.47;13.43;;;1.50;99.90;;;;;;5092901;28;20194;-75
2022/01/14 00:21:20;;;;;;;37.03;13.70;;;1.50;99.90;;;;;;5093056;28;20172;-75
2022/01/14 00:23:50;;;;;;;36.33;14.03;;;1.50;99.90;;;;;;5091646;28;20178;-76
2022/01/14 00:34:15;;;;;;;43.10;15.93;;;1.60;99.90;;;;;;5092340;28;20262;-76
2022/01/14 00:36:41;;;;;;;37.27;16.20;;;1.60;99.90;;;;;;5092853;28;20171;-77
2022/01/14 00:39:09;;;;;;;36.57;14.90;;;1.60;99.90;;;;;;5092418;28;20233;-76
2022/01/14 00:41:35;;;;;;;40.20;13.63;;;1.60;99.90;;;;;;5091303;28;20708;-77
2022/01/14 00:44:08;;;;;;;28.50;12.43;;;1.50;99.90;;;;;;5092446;28;20705;-75
2022/01/14 00:46:34;;;;;;;35.67;15.03;;;1.50;99.90;;;;;;5092487;28;20247;-75
2022/01/14 00:49:01;;;;;;;29.90;13.37;;;1.50;99.90;;;;;;5093195;28;20286;-75
2022/01/14 00:51:27;;;;;;;37.93;13.43;;;1.50;99.90;;;;;;5091061;28;20180;-75
2022/01/14 00:53:53;;;;;;;28.70;13.20;;;1.50;99.90;;;;;;5092337;28;20194;-75
2022/01/14 01:01:36;;;;;;;44.33;18.77;;;1.40;99.90;;;;;;5092344;28;20202;-74
2022/01/14 01:04:02;;;;;;;43.23;17.23;;;1.40;99.90;;;;;;5091834;28;20176;-73
2022/01/14 01:06:28;;;;;;;37.53;15.10;;;1.40;99.90;;;;;;5091882;28;20268;-74
2022/01/14 01:08:56;;;;;;;35.50;13.33;;;1.40;99.90;;;;;;5091873;28;20176;-75
2022/01/14 01:11:27;;;;;;;27.47;12.03;;;1.40;99.90;;;;;;5092002;28;20179;-74
2022/01/14 01:14:33;;;;;;;38.87;13.17;;;1.40;99.90;;;;;;5092039;28;20168;-73
2022/01/14 01:16:45;;;;;;;35.33;14.40;;;1.30;99.90;;;;;;5089568;28;20183;-73
2022/01/14 01:19:12;;;;;;;40.10;14.60;;;1.40;99.90;;;;;;5091855;28;20664;-73
2022/01/14 01:21:38;;;;;;;36.47;15.27;;;1.30;99.90;;;;;;5091667;28;20172;-73
2022/01/14 01:24:04;;;;;;;31.37;14.70;;;1.40;99.90;;;;;;5091739;28;20250;-73
2022/01/14 01:26:34;;;;;;;29.67;14.33;;;1.30;99.90;;;;;;5091416;28;20253;-72
2022/01/14 01:31:38;;;;;;;34.00;14.53;;;1.00;99.90;;;;;;5091686;28;20168;-73
2022/01/14 01:34:06;;;;;;;28.77;13.27;;;1.30;99.90;;;;;;5091195;28;20244;-73
2022/01/14 01:36:33;;;;;;;29.97;12.87;;;1.30;99.90;;;;;;5091485;28;20630;-73
2022/01/14 01:38:59;;;;;;;29.00;13.47;;;1.30;99.90;;;;;;5091493;28;20214;-74
2022/01/14 01:41:25;;;;;;;33.33;14.93;;;1.30;99.90;;;;;;5092598;28;20203;-72
2022/01/14 01:43:53;;;;;;;36.60;13.37;;;1.30;99.90;;;;;;5102855;28;20696;-74
2022/01/14 01:46:20;;;;;;;34.07;13.07;;;1.30;99.90;;;;;;5110869;28;20207;-73
2022/01/14 01:48:51;;;;;;;29.27;12.23;;;1.30;99.90;;;;;;5092630;28;20183;-73
2022/01/14 01:51:17;;;;;;;27.87;13.03;;;1.20;99.90;;;;;;5091604;28;20218;-74
2022/01/14 01:53:44;;;;;;;31.10;13.50;;;1.10;99.90;;;;;;5091371;28;20302;-73
2022/01/14 01:56:09;;;;;;;49.67;16.57;;;1.10;99.90;;;;;;5091280;28;20172;-73
2022/01/14 01:58:35;;;;;;;74.83;24.43;;;1.10;99.90;;;;;;5091154;28;20657;-73
2022/01/14 02:01:05;;;;;;;52.57;17.33;;;1.10;99.90;;;;;;5099889;28;20588;-73
2022/01/14 02:03:33;;;;;;;39.47;14.83;;;1.10;99.90;;;;;;5105073;28;20175;-74
2022/01/14 02:06:00;;;;;;;29.77;14.27;;;1.10;99.90;;;;;;5111520;28;20203;-74
2022/01/14 02:08:26;;;;;;;37.20;14.50;;;1.10;99.90;;;;;;5111543;28;20213;-74
2022/01/14 02:10:52;;;;;;;31.20;13.73;;;1.10;99.90;;;;;;5101910;28;20195;-74
2022/01/14 02:13:18;;;;;;;32.60;14.63;;;1.00;99.90;;;;;;5091143;28;20229;-74
2022/01/14 02:15:49;;;;;;;38.40;13.37;;;1.00;99.90;;;;;;5091112;28;20160;-74
2022/01/14 02:23:52;;;;;;;30.73;14.33;;;0.90;99.90;;;;;;5111455;28;20220;-82
2022/01/14 02:26:20;;;;;;;33.03;13.37;;;0.90;99.90;;;;;;5111611;28;20202;-85
2022/01/14 02:28:47;;;;;;;34.53;15.17;;;0.90;99.90;;;;;;5111774;28;20190;-86
2022/01/14 02:31:14;;;;;;;32.70;14.73;;;0.90;99.90;;;;;;5105333;28;20254;-85
2022/01/14 02:33:39;;;;;;;42.47;15.47;;;0.90;99.90;;;;;;5111785;28;20178;-85
2022/01/14 02:36:06;;;;;;;32.23;14.43;;;0.90;99.90;;;;;;5104146;28;20168;-85
2022/01/14 02:38:32;;;;;;;30.87;13.27;;;0.90;99.90;;;;;;5111124;28;20175;-86
2022/01/14 02:40:58;;;;;;;26.93;14.40;;;0.80;99.90;;;;;;5111696;28;20167;-85
2022/01/14 02:43:26;;;;;;;34.43;15.40;;;0.80;99.90;;;;;;5105944;28;20755;-85
2022/01/14 02:45:54;;;;;;;34.90;15.23;;;0.80;99.90;;;;;;5090208;28;20211;-85
2022/01/14 02:48:29;;;;;;;27.87;14.40;;;0.80;99.90;;;;;;5091090;28;20175;-84
2022/01/14 02:53:43;;;;;;;35.93;15.37;;;0.90;99.90;;;;;;5095964;28;20183;-84
2022/01/14 02:56:19;;;;;;;36.00;16.73;;;0.90;99.90;;;;;;5111773;28;20172;-84
2022/01/14 02:58:46;;;;;;;40.57;15.67;;;0.90;99.90;;;;;;5115355;28;20637;-84
2022/01/14 03:01:18;;;;;;;39.27;16.97;;;1.00;99.90;;;;;;5115255;28;20191;-83
2022/01/14 03:03:45;;;;;;;36.70;16.70;;;0.90;99.90;;;;;;5106060;28;20176;-83
2022/01/14 03:06:12;;;;;;;45.67;16.40;;;0.90;99.90;;;;;;5095109;28;20215;-84
2022/01/14 03:08:38;;;;;;;44.00;15.87;;;0.90;99.90;;;;;;5106567;28;20167;-84
2022/01/14 03:11:34;;;;;;;37.07;16.23;;;0.90;99.90;;;;;;5115256;28;20658;-83
2022/01/14 03:14:00;;;;;;;34.97;15.50;;;0.90;99.90;;;;;;5111897;28;20179;-84
2022/01/14 03:16:27;;;;;;;37.17;15.40;;;0.90;99.90;;;;;;5098394;28;20171;-77
2022/01/14 03:19:03;;;;;;;41.60;15.53;;;0.90;99.90;;;;;;5094955;28;20216;-77
2022/01/14 03:21:36;;;;;;;44.53;15.83;;;0.90;99.90;;;;;;5093809;28;20176;-81
2022/01/14 03:24:13;;;;;;;39.07;15.80;;;0.80;99.90;;;;;;5094744;28;20229;-80
2022/01/14 03:26:39;;;;;;;38.03;16.10;;;0.80;99.90;;;;;;5094360;28;20607;-82
2022/01/14 03:29:05;;;;;;;34.27;15.53;;;0.80;99.90;;;;;;5094343;28;20168;-83
2022/01/14 03:31:31;;;;;;;32.70;15.13;;;0.80;99.90;;;;;;5094064;28;20681;-83
2022/01/14 03:33:57;;;;;;;32.50;15.67;;;0.80;99.90;;;;;;5094092;28;20199;-82
2022/01/14 03:36:22;;;;;;;29.53;14.83;;;0.80;99.90;;;;;;5092621;28;20179;-82
2022/01/14 03:38:48;;;;;;;38.17;16.00;;;0.80;99.90;;;;;;5113299;28;20191;-82
2022/01/14 03:41:14;;;;;;;43.73;19.23;;;0.80;99.90;;;;;;5114439;28;20626;-88
2022/01/14 03:43:41;;;;;;;39.30;17.93;;;0.80;99.90;;;;;;5115544;27;20692;-88
2022/01/14 03:46:07;;;;;;;42.57;17.33;;;0.70;99.90;;;;;;5103019;28;20215;-89
2022/01/14 03:48:33;;;;;;;39.33;16.93;;;0.60;99.90;;;;;;5094517;28;20183;-88
2022/01/14 03:50:59;;;;;;;37.07;18.10;;;0.60;99.90;;;;;;5094158;28;20649;-88
2022/01/14 03:53:25;;;;;;;44.83;17.10;;;0.60;99.90;;;;;;5094586;28;20179;-88
2022/01/14 03:55:51;;;;;;;38.27;16.83;;;0.60;99.90;;;;;;5094366;28;20233;-87
2022/01/14 03:58:17;;;;;;;46.77;17.40;;;0.50;99.90;;;;;;5094713;28;20579;-87
2022/01/14 04:00:43;;;;;;;39.27;16.13;;;0.50;99.90;;;;;;5092800;28;20643;-87
2022/01/14 04:03:09;;;;;;;36.10;15.77;;;0.50;99.90;;;;;;5094295;28;20279;-88
2022/01/14 04:05:35;;;;;;;36.37;15.87;;;0.50;99.90;;;;;;5094388;28;20769;-89
2022/01/14 04:08:01;;;;;;;38.70;15.13;;;0.50;99.90;;;;;;5093123;28;20194;-89
2022/01/14 04:10:27;;;;;;;39.37;16.27;;;0.50;99.90;;;;;;5094326;28;20250;-87
2022/01/14 04:13:03;;;;;;;34.23;16.97;;;0.50;99.90;;;;;;5094099;28;20654;-88
2022/01/14 04:15:37;;;;;;;42.73;16.70;;;0.50;99.90;;;;;;5094587;28;20263;-89
2022/01/14 04:18:08;;;;;;;37.17;15.80;;;0.50;99.90;;;;;;5093805;28;20719;-82
2022/01/14 04:20:35;;;;;;;38.07;16.40;;;0.50;99.90;;;;;;5096451;28;20717;-83
2022/01/14 04:23:01;;;;;;;36.33;16.00;;;0.50;99.90;;;;;;5113626;28;20240;-83
2022/01/14 04:25:27;;;;;;;44.20;18.53;;;0.50;99.90;;;;;;5107339;28;20222;-82
2022/01/14 04:27:54;;;;;;;38.60;18.67;;;0.50;99.90;;;;;;5113573;28;20236;-84
2022/01/14 04:30:20;;;;;;;36.97;18.13;;;0.50;99.90;;;;;;5111121;28;20183;-85
2022/01/14 04:32:46;;;;;;;38.00;17.93;;;0.50;99.90;;;;;;5093292;28;20172;-85
2022/01/14 04:35:12;;;;;;;41.80;17.97;;;0.60;99.90;;;;;;5092849;28;20294;-84
2022/01/14 04:37:38;;;;;;;37.43;17.00;;;0.60;99.90;;;;;;5093204;28;20233;-82
2022/01/14 04:40:05;;;;;;;39.30;17.20;;;0.60;99.90;;;;;;5092649;28;20176;-71
2022/01/14 04:42:31;;;;;;;33.90;15.93;;;0.60;99.90;;;;;;5092757;28;20212;-78
2022/01/14 04:44:57;;;;;;;33.23;16.47;;;0.50;99.90;;;;;;5092427;28;20200;-78
2022/01/14 04:50:20;;;;;;;38.60;15.17;;;0.50;99.90;;;;;;5083063;28;20191;-79
2022/01/14 04:52:47;;;;;;;37.80;16.70;;;0.50;99.90;;;;;;5092484;28;20164;-79
2022/01/14 04:55:16;;;;;;;32.43;14.90;;;0.60;99.90;;;;;;5092426;28;20172;-77
2022/01/14 04:57:43;;;;;;;39.70;16.70;;;0.50;99.90;;;;;;5092571;28;20180;-79
2022/01/14 05:00:12;;;;;;;36.93;16.73;;;0.50;99.90;;;;;;5092387;28;20175;-78
2022/01/14 05:02:39;;;;;;;34.37;16.90;;;0.50;99.90;;;;;;5091993;28;20202;-78
2022/01/14 05:05:06;;;;;;;33.60;18.03;;;0.50;99.90;;;;;;5092021;28;20199;-78
2022/01/14 05:07:32;;;;;;;45.67;18.17;;;0.60;99.90;;;;;;5092213;28;20214;-77
2022/01/14 05:12:38;;;;;;;37.67;17.20;;;0.60;99.90;;;;;;5092255;28;20168;-80
2022/01/14 05:15:05;;;;;;;40.27;16.93;;;0.60;99.90;;;;;;5092131;28;20210;-80
2022/01/14 05:17:31;;;;;;;39.73;17.67;;;0.60;99.90;;;;;;5092135;28;20179;-80
2022/01/14 05:19:58;;;;;;;41.40;17.90;;;0.50;99.90;;;;;;5091709;28;20176;-79
2022/01/14 05:22:25;;;;;;;35.67;17.60;;;0.50;99.90;;;;;;5092081;28;20244;-79
2022/01/14 05:24:50;;;;;;;30.60;16.90;;;0.50;99.90;;;;;;5091788;28;20654;-79
2022/01/14 05:27:16;;;;;;;36.50;17.23;;;0.50;99.90;;;;;;5091868;28;20194;-79
2022/01/14 05:29:42;;;;;;;35.53;17.33;;;0.50;99.90;;;;;;5092144;28;20268;-80
2022/01/14 05:32:13;;;;;;;30.53;16.80;;;0.50;99.90;;;;;;5091745;28;20713;-79
2022/01/14 05:34:40;;;;;;;42.00;18.93;;;0.50;99.90;;;;;;5091619;28;20175;-80
2022/01/14 05:37:06;;;;;;;34.53;17.40;;;0.50;99.90;;;;;;5091726;28;20187;-79
2022/01/14 05:39:32;;;;;;;34.50;17.70;;;0.50;99.90;;;;;;5091725;28;20175;-80
2022/01/14 05:42:00;;;;;;;37.87;17.30;;;0.50;99.90;;;;;;5091460;28;20249;-79
2022/01/14 05:44:27;;;;;;;42.77;17.03;;;0.50;99.90;;;;;;5091337;28;20234;-79
2022/01/14 05:46:55;;;;;;;40.07;17.47;;;0.40;99.90;;;;;;5091456;28;20207;-79
2022/01/14 05:49:21;;;;;;;35.77;17.63;;;0.40;99.90;;;;;;5091580;28;20176;-78
2022/01/14 05:51:48;;;;;;;40.17;17.03;;;0.40;99.90;;;;;;5091615;28;20174;-78
2022/01/14 05:54:14;;;;;;;38.13;17.57;;;0.30;99.90;;;;;;5089990;28;20176;-78
2022/01/14 05:56:40;;;;;;;42.37;18.20;;;0.40;99.90;;;;;;5091462;28;20171;-78
2022/01/14 05:59:06;;;;;;;42.67;19.03;;;0.40;99.90;;;;;;5090414;28;20172;-80
2022/01/14 06:01:32;;;;;;;41.27;18.63;;;0.40;99.90;;;;;;5091557;28;20245;-77
2022/01/14 06:03:59;;;;;;;44.13;19.07;;;0.50;99.90;;;;;;5091350;28;20638;-78
2022/01/14 06:06:25;;;;;;;43.50;18.10;;;0.50;99.90;;;;;;5091201;28;20200;-75
2022/01/14 06:08:51;;;;;;;40.10;17.43;;;0.50;99.90;;;;;;5091320;28;20179;-76
2022/01/14 06:11:17;;;;;;;40.83;19.50;;;0.40;99.90;;;;;;5091085;28;20176;-76
2022/01/14 06:13:43;;;;;;;47.53;19.50;;;0.30;99.90;;;;;;5091037;28;20198;-77
2022/01/14 06:16:09;;;;;;;44.73;17.90;;;0.20;99.90;;;;;;5091271;28;20172;-78
2022/01/14 06:18:35;;;;;;;36.97;17.93;;;0.20;99.90;;;;;;5090891;28;20258;-84
2022/01/14 06:21:04;;;;;;;40.53;18.37;;;0.20;99.90;;;;;;5091440;28;20229;-83
2022/01/14 06:23:30;;;;;;;46.57;18.47;;;0.20;99.90;;;;;;5092271;28;20205;-83
2022/01/14 06:25:57;;;;;;;44.37;18.90;;;0.20;99.90;;;;;;5091391;28;20587;-84
2022/01/14 06:28:23;;;;;;;38.43;18.20;;;0.20;99.90;;;;;;5091346;28;20178;-84
2022/01/14 06:30:49;;;;;;;48.77;18.93;;;0.20;99.90;;;;;;5091531;28;20696;-84
2022/01/14 06:33:15;;;;;;;51.77;19.53;;;0.20;99.90;;;;;;5095690;28;20190;-83
2022/01/14 06:35:41;;;;;;;82.83;21.27;;;0.20;99.90;;;;;;5098195;28;20176;-85
2022/01/14 06:38:06;;;;;;;40.80;18.73;;;0.10;99.90;;;;;;5112421;28;20174;-84
2022/01/14 06:40:33;;;;;;;39.83;19.07;;;0.10;99.90;;;;;;5112233;28;20175;-78
2022/01/14 06:42:59;;;;;;;45.20;21.23;;;0.10;99.90;;;;;;5094832;28;20340;-78
2022/01/14 06:45:25;;;;;;;44.43;20.43;;;0.20;99.90;;;;;;5094930;28;20226;-79
2022/01/14 06:47:52;;;;;;;41.87;20.07;;;0.20;99.90;;;;;;5095094;28;20160;-78
2022/01/14 06:50:19;;;;;;;41.57;20.10;;;0.20;99.90;;;;;;5095015;28;20167;-77
2022/01/14 06:52:45;;;;;;;47.80;19.73;;;0.10;99.90;;;;;;5097115;28;20165;-72
2022/01/14 06:55:12;;;;;;;45.40;20.57;;;0.10;99.90;;;;;;5101700;28;20179;-81
2022/01/14 06:57:38;;;;;;;43.07;20.00;;;0.10;99.90;;;;;;5095319;28;20168;-82
2022/01/14 07:00:06;;;;;;;48.07;21.20;;;0.10;99.90;;;;;;5095439;28;20196;-82
2022/01/14 07:02:32;;;;;;;48.53;20.53;;;0.10;99.90;;;;;;5094821;28;20210;-82
2022/01/14 07:04:58;;;;;;;43.87;22.20;;;0.20;99.90;;;;;;5094670;28;20176;-82
2022/01/14 07:07:24;;;;;;;47.77;22.63;;;0.20;99.90;;;;;;5094293;28;20262;-81
2022/01/14 07:09:56;;;;;;;45.87;21.97;;;0.20;99.90;;;;;;5094410;28;20568;-82
2022/01/14 07:12:33;;;;;;;44.30;21.00;;;0.30;99.90;;;;;;5094372;28;20164;-81
2022/01/14 07:15:00;;;;;;;47.40;21.40;;;0.30;99.90;;;;;;5093280;28;20183;-82
2022/01/14 07:17:27;;;;;;;48.80;21.10;;;0.30;99.90;;;;;;5093977;28;20653;-82
2022/01/14 07:19:57;;;;;;;44.43;20.93;;;0.30;99.90;;;;;;5094273;28;20186;-81
2022/01/14 07:22:23;;;;;;;45.73;20.00;;;0.30;99.90;;;;;;5094221;28;20220;-81
2022/01/14 07:24:49;;;;;;;49.23;21.93;;;0.30;99.90;;;;;;5093991;28;20172;-77
2022/01/14 07:27:15;;;;;;;47.70;21.37;;;0.30;99.90;;;;;;5094243;28;20175;-78
2022/01/14 07:29:41;;;;;;;46.43;21.70;;;0.30;99.90;;;;;;5093973;28;20164;-78
2022/01/14 07:32:07;;;;;;;47.07;22.23;;;0.40;99.90;;;;;;5093596;28;20242;-77
2022/01/14 07:34:33;;;;;;;49.90;21.60;;;0.40;99.90;;;;;;5093801;28;20179;-78
2022/01/14 07:36:59;;;;;;;45.73;21.93;;;0.40;99.90;;;;;;5093757;28;20179;-78
2022/01/14 07:39:26;;;;;;;53.23;21.93;;;0.40;99.90;;;;;;5093844;28;20191;-77
2022/01/14 07:41:52;;;;;;;50.13;21.80;;;0.40;99.90;;;;;;5093843;28;20251;-78
2022/01/14 07:44:18;;;;;;;45.17;21.90;;;0.40;99.90;;;;;;5093340;28;20865;-79
2022/01/14 07:46:44;;;;;;;43.77;21.07;;;0.40;99.90;;;;;;5093474;28;20312;-78
2022/01/14 07:49:10;;;;;;;47.90;21.13;;;0.40;99.90;;;;;;5093540;28;20176;-75
2022/01/14 07:51:36;;;;;;;48.03;21.50;;;0.40;99.90;;;;;;5102155;28;20210;-74
2022/01/14 07:54:07;;;;;;;44.80;21.77;;;0.30;99.90;;;;;;5112441;28;20625;-74
2022/01/14 07:56:52;;;;;;;43.83;21.57;;;0.30;99.90;;;;;;5113953;28;20262;-76
2022/01/14 07:59:21;;;;;;;50.60;21.50;;;0.30;99.90;;;;;;5113573;28;20237;-74
2022/01/14 08:01:49;;;;;;;49.60;21.77;;;0.40;99.90;;;;;;5110396;28;20232;-80
2022/01/14 08:04:16;;;;;;;46.40;20.73;;;0.40;99.90;;;;;;5095132;28;20184;-76
2022/01/14 08:06:47;;;;;;;53.67;22.30;;;0.50;99.90;;;;;;5093226;28;20221;-78
2022/01/14 08:09:14;;;;;;;45.53;20.80;;;0.50;99.90;;;;;;5091716;28;20168;-78
2022/01/14 08:11:42;;;;;;;46.77;20.53;;;0.50;99.90;;;;;;5093325;28;20657;-79
2022/01/14 08:14:07;;;;;;;41.93;20.27;;;0.50;99.90;;;;;;5093133;28;20164;-79
2022/01/14 08:16:33;;;;;;;44.23;20.20;;;0.40;99.90;;;;;;5093025;28;20180;-79
2022/01/14 08:18:59;;;;;;;43.60;20.17;;;0.40;99.90;;;;;;5092174;28;20223;-80
2022/01/14 08:21:25;;;;;;;44.63;21.37;;;0.40;99.90;;;;;;5093162;28;20543;-67
2022/01/14 08:23:51;;;;;;;43.53;21.93;;;0.30;99.90;;;;;;5092799;28;20176;-72
2022/01/14 08:26:16;;;;;;;48.77;23.40;;;0.30;99.90;;;;;;5097492;28;20206;-70
2022/01/14 08:28:42;;;;;;;46.07;21.40;;;0.30;99.90;;;;;;5113003;28;20179;-71
2022/01/14 08:31:08;;;;;;;49.20;23.03;;;0.40;99.90;;;;;;5092472;28;20673;-73
2022/01/14 08:33:34;;;;;;;56.17;23.83;;;0.30;99.90;;;;;;5092901;28;20179;-72
2022/01/14 08:36:00;;;;;;;46.53;22.70;;;0.30;99.90;;;;;;5092706;28;20171;-74
2022/01/14 08:38:26;;;;;;;49.17;23.10;;;0.30;99.90;;;;;;5092495;28;20168;-73
2022/01/14 08:40:53;;;;;;;54.70;22.83;;;0.40;99.90;;;;;;5092613;28;20179;-72
2022/01/14 08:43:19;;;;;;;54.10;24.37;;;0.50;99.90;;;;;;5092213;28;20308;-72
2022/01/14 08:45:45;;;;;;;58.27;22.97;;;0.50;99.90;;;;;;5092386;28;20690;-72
2022/01/14 08:48:11;;;;;;;49.87;23.17;;;0.50;99.90;;;;;;5092147;28;20172;-73
2022/01/14 08:50:38;;;;;;;54.50;22.93;;;0.70;99.90;;;;;;5092347;28;20214;-73
2022/01/14 08:53:10;;;;;;;48.80;22.53;;;1.20;99.90;;;;;;5092367;28;20183;-73
2022/01/14 08:55:36;;;;;;;56.60;21.50;;;2.00;99.90;;;;;;5091817;28;20168;-73
2022/01/14 08:58:06;;;;;;;44.17;20.20;;;2.10;99.90;;;;;;5092462;28;20210;-73
2022/01/14 09:00:33;;;;;;;41.27;18.03;;;2.00;99.90;;;;;;5095236;28;20183;-73
2022/01/14 09:02:59;;;;;;;47.33;19.30;;;3.10;99.90;;;;;;5101322;28;20262;-74
2022/01/14 09:05:25;;;;;;;44.87;18.43;;;3.60;99.90;;;;;;5091910;28;20207;-74
2022/01/14 09:07:51;;;;;;;42.30;18.03;;;3.60;99.90;;;;;;5092062;28;20274;-75
2022/01/14 09:10:19;;;;;;;43.33;17.87;;;3.70;99.90;;;;;;5091763;28;20171;-73
2022/01/14 09:12:45;;;;;;;39.03;17.60;;;4.20;99.90;;;;;;5091824;28;20195;-74
2022/01/14 09:15:11;;;;;;;38.50;16.37;;;4.40;99.90;;;;;;5092113;28;20251;-73
2022/01/14 09:17:40;;;;;;;37.00;16.90;;;4.30;99.90;;;;;;5092512;28;20639;-75
2022/01/14 09:20:07;;;;;;;36.73;16.73;;;4.10;99.90;;;;;;5091776;28;20191;-69
2022/01/14 09:22:35;;;;;;;39.67;16.87;;;4.00;99.90;;;;;;5092038;28;20528;-73
2022/01/14 09:25:01;;;;;;;35.33;16.47;;;4.30;99.90;;;;;;5090586;28;20719;-72
2022/01/14 09:27:29;;;;;;;36.50;17.73;;;4.40;99.90;;;;;;5091845;28;20168;-72
2022/01/14 09:29:56;;;;;;;35.53;17.13;;;4.30;99.90;;;;;;5091546;28;20190;-73
2022/01/14 09:32:22;;;;;;;37.60;16.43;;;4.80;99.90;;;;;;5091798;28;20188;-73
2022/01/14 09:34:49;;;;;;;39.13;15.77;;;5.20;99.90;;;;;;5092732;28;20726;-73
2022/01/14 09:37:15;;;;;;;40.77;16.77;;;5.50;99.90;;;;;;5091772;28;20191;-70
2022/01/14 09:39:43;;;;;;;38.53;16.20;;;5.50;99.90;;;;;;5091570;28;20183;-73
2022/01/14 09:42:14;;;;;;;37.00;15.47;;;5.60;99.90;;;;;;5097360;28;20187;-72
2022/01/14 09:44:41;;;;;;;33.37;15.80;;;5.50;99.90;;;;;;5111827;28;20290;-74
2022/01/14 09:47:07;;;;;;;44.37;15.67;;;5.00;99.90;;;;;;5110876;28;20247;-74
2022/01/14 09:49:33;;;;;;;34.50;15.10;;;5.30;99.90;;;;;;5111466;28;20179;-74
2022/01/14 09:51:59;;;;;;;29.67;13.93;;;6.00;99.90;;;;;;5111796;28;20167;-68
2022/01/14 09:54:25;;;;;;;33.53;15.00;;;6.40;99.90;;;;;;5106882;28;20665;-68
2022/01/14 09:56:51;;;;;;;34.80;15.73;;;5.90;99.90;;;;;;5110890;28;20534;-68
2022/01/14 09:59:18;;;;;;;28.23;15.23;;;6.10;99.90;;;;;;5111264;28;20182;-69
2022/01/14 10:01:47;;;;;;;32.17;16.23;;;6.20;99.90;;;;;;5111538;28;20167;-70
2022/01/14 10:04:20;;;;;;;35.87;15.33;;;6.40;99.90;;;;;;5101297;28;20570;-69
2022/01/14 10:06:56;;;;;;;38.17;16.10;;;6.50;99.90;;;;;;5093783;28;20225;-69
2022/01/14 10:09:30;;;;;;;41.73;16.77;;;5.90;99.90;;;;;;5101950;28;20174;-68
2022/01/14 10:12:13;;;;;;;31.90;15.70;;;5.30;99.90;;;;;;5111504;28;20702;-69
2022/01/14 10:14:52;;;;;;;36.70;16.50;;;4.90;99.90;;;;;;5091118;28;20182;-68
2022/01/14 10:17:18;;;;;;;40.20;17.80;;;4.60;99.90;;;;;;5091141;28;20511;-69
2022/01/14 10:19:46;;;;;;;35.70;16.63;;;4.50;99.90;;;;;;5091020;28;20168;-69
2022/01/14 10:22:27;;;;;;;40.63;16.60;;;4.50;99.90;;;;;;5091081;28;20644;-68
2022/01/14 10:24:57;;;;;;;38.90;17.47;;;4.50;99.90;;;;;;5090987;28;20989;-68
2022/01/14 10:27:43;;;;;;;40.77;18.50;;;4.50;99.90;;;;;;5090852;28;20171;-69
2022/01/14 10:30:13;;;;;;;44.30;18.37;;;4.70;99.90;;;;;;5109901;28;20182;-69
2022/01/14 10:32:41;;;;;;;36.97;17.57;;;5.20;99.90;;;;;;5102076;28;20171;-69
2022/01/14 10:35:10;;;;;;;40.13;18.00;;;5.30;99.90;;;;;;5100614;28;20272;-69
2022/01/14 10:37:36;;;;;;;39.10;18.03;;;5.40;99.90;;;;;;5090539;28;20301;-68
2022/01/14 10:40:11;;;;;;;44.03;17.97;;;5.40;99.90;;;;;;5090719;28;20654;-69
2022/01/14 10:42:37;;;;;;;40.93;18.53;;;5.30;99.90;;;;;;5090824;28;20229;-69
2022/01/14 10:45:23;;;;;;;39.53;18.13;;;5.40;99.90;;;;;;5099502;28;20564;-69
2022/01/14 10:48:10;;;;;;;42.63;20.07;;;6.10;99.90;;;;;;5110943;28;20179;-69
2022/01/14 10:50:43;;;;;;;42.77;17.87;;;7.50;99.90;;;;;;5110872;28;20167;-65
2022/01/14 10:53:18;;;;;;;39.50;18.00;;;8.20;99.90;;;;;;5094218;28;20212;-65
2022/01/14 10:55:48;;;;;;;38.93;19.27;;;8.10;99.90;;;;;;5095033;28;20178;-65
2022/01/14 10:58:18;;;;;;;46.30;19.00;;;8.30;99.90;;;;;;5110964;28;20171;-64
2022/01/14 11:00:50;;;;;;;43.57;20.03;;;8.80;99.90;;;;;;5110071;28;20171;-65
2022/01/14 11:03:31;;;;;;;46.57;19.33;;;8.50;99.90;;;;;;5108659;28;20164;-63
2022/01/14 11:06:20;;;;;;;45.47;19.43;;;8.70;99.90;;;;;;5110886;28;20199;-63
2022/01/14 11:08:47;;;;;;;37.67;18.53;;;8.60;99.90;;;;;;5110868;28;20241;-64
2022/01/14 11:11:13;;;;;;;42.57;19.20;;;8.50;99.90;;;;;;5109238;28;20231;-63
2022/01/14 11:13:39;;;;;;;37.03;19.43;;;8.90;99.90;;;;;;5110681;28;20159;-64
2022/01/14 11:16:05;;;;;;;35.97;18.80;;;11.70;99.90;;;;;;5110825;28;20186;-63
2022/01/14 11:18:31;;;;;;;40.43;18.67;;;11.20;99.90;;;;;;5112051;28;20526;-64
2022/01/14 11:23:41;;;;;;;37.50;18.13;;;11.50;99.90;;;;;;5111537;28;20167;-64
2022/01/14 11:26:15;;;;;;;37.22;18.20;;;13.00;99.90;;;;;;5112329;28;20681;-64
2022/01/14 11:28:44;;;;;;;31.65;15.95;;;13.90;99.90;;;;;;5112078;28;20661;-64
2022/01/14 11:31:28;;;;;;;32.00;15.05;;;14.10;99.90;;;;;;5112601;28;20175;-64
2022/01/14 11:33:55;;;;;;;35.53;14.02;;;14.50;99.90;;;;;;5099371;28;20176;-64
2022/01/14 11:36:21;;;;;;;32.22;14.57;;;14.30;99.90;;;;;;5114057;28;20183;-64
2022/01/14 11:38:47;;;;;;;32.20;13.15;;;15.10;99.90;;;;;;5104822;28;20557;-65
2022/01/14 11:41:20;;;;;;;30.63;12.57;;;15.40;99.90;;;;;;5093746;28;20250;-64
2022/01/14 11:43:54;;;;;;;31.50;13.93;;;14.00;99.90;;;;;;5093522;28;20229;-63
2022/01/14 11:46:32;;;;;;;26.88;12.10;;;13.70;99.90;;;;;;5093510;28;20237;-63
2022/01/14 11:48:59;;;;;;;29.33;12.32;;;16.50;99.90;;;;;;5093560;28;20205;-63
2022/01/14 11:51:25;;;;;;;30.67;12.88;;;18.10;99.90;;;;;;5106838;28;20182;-63
2022/01/14 11:54:04;;;;;;;24.98;12.48;;;18.90;99.90;;;;;;5113761;28;20167;-63
2022/01/14 11:56:33;;;;;;;27.15;13.32;;;19.20;99.90;;;;;;5113837;28;20175;-64
2022/01/14 11:59:17;;;;;;;23.02;12.07;;;20.60;99.90;;;;;;5113804;28;20171;-64
2022/01/14 12:01:43;;;;;;;26.80;12.55;;;19.60;99.90;;;;;;5113673;28;20638;-64
2022/01/14 12:04:09;;;;;;;25.85;12.00;;;19.60;99.90;;;;;;5113537;28;20167;-65
2022/01/14 12:06:50;;;;;;;22.02;11.57;;;20.90;99.90;;;;;;5113460;28;20215;-65
2022/01/14 12:09:20;;;;;;;21.15;10.65;;;20.50;99.90;;;;;;5113448;28;20171;-65
2022/01/14 12:12:28;;;;;;;22.65;11.10;;;20.10;99.90;;;;;;5113592;28;20163;-65
2022/01/14 12:15:00;;;;;;;21.65;10.43;;;19.10;99.90;;;;;;5113523;28;20641;-65
2022/01/14 12:17:40;;;;;;;23.00;11.30;;;19.30;99.90;;;;;;5113459;28;20220;-65
2022/01/14 12:20:08;;;;;;;30.63;10.93;;;20.20;99.90;;;;;;5113448;28;20166;-65
2022/01/14 12:22:34;;;;;;;23.80;9.93;;;20.80;99.90;;;;;;5113476;27;20324;-65
2022/01/14 12:24:59;;;;;;;26.42;11.45;;;21.10;99.90;;;;;;5113542;28;20638;-65
2022/01/14 12:27:28;;;;;;;32.28;11.07;;;21.10;99.90;;;;;;5104319;28;20275;-65
2022/01/14 12:30:22;;;;;;;28.50;11.05;;;19.90;99.90;;;;;;5091800;28;20599;-65
2022/01/14 12:32:50;;;;;;;23.52;11.00;;;19.30;99.90;;;;;;5090158;28;20188;-65
2022/01/14 12:35:18;;;;;;;27.67;10.23;;;19.70;99.90;;;;;;5092697;28;20179;-66
2022/01/14 12:37:55;;;;;;;22.65;10.48;;;20.90;99.90;;;;;;5092621;28;20191;-65
2022/01/14 12:40:23;;;;;;;19.17;9.60;;;20.10;99.90;;;;;;5092578;28;20179;-65
2022/01/14 12:42:57;;;;;;;29.25;10.55;;;20.60;99.90;;;;;;5092384;28;20203;-65
2022/01/14 12:45:31;;;;;;;23.40;10.02;;;20.60;99.90;;;;;;5092476;28;20217;-65
2022/01/14 12:48:31;;;;;;;28.85;10.70;;;21.40;99.90;;;;;;5092542;28;20176;-65
2022/01/14 12:51:24;;;;;;;31.15;10.02;;;22.60;99.90;;;;;;5091013;28;20176;-65
2022/01/14 12:53:55;;;;;;;23.50;11.38;;;22.80;99.90;;;;;;5090326;28;20187;-65
2022/01/14 12:56:24;;;;;;;35.80;10.95;;;22.70;99.90;;;;;;5092256;28;20176;-66
2022/01/14 12:58:55;;;;;;;28.40;10.30;;;23.20;99.90;;;;;;5092375;28;20183;-66
2022/01/14 13:01:40;;;;;;;27.00;10.30;;;23.70;99.90;;;;;;5092214;28;20171;-66
2022/01/14 13:04:15;;;;;;;22.88;9.98;;;23.30;99.90;;;;;;5105096;28;20239;-67
2022/01/14 13:06:50;;;;;;;22.73;9.43;;;23.60;99.90;;;;;;5095681;28;20229;-66
2022/01/14 13:09:22;;;;;;;28.92;9.73;;;23.40;99.90;;;;;;5095273;28;20163;-66
2022/01/14 13:12:16;;;;;;;30.00;11.02;;;23.60;99.90;;;;;;5091870;28;20973;-66
2022/01/14 13:14:52;;;;;;;39.35;10.93;;;23.10;99.90;;;;;;5092176;28;20258;-66
2022/01/14 13:17:27;;;;;;;20.42;9.68;;;23.00;99.90;;;;;;5091893;28;20174;-66
2022/01/14 13:19:58;;;;;;;19.92;9.60;;;23.10;99.90;;;;;;5098219;28;20187;-66